sensor_id;sensor_type;location;lat;lon;timestamp;temperature;humidity
48988;DHT22;34799;51.440;-2.534;2023-09-08T00:02:28;23.70;99.90
48988;DHT22;34799;51.440;-2.534;2023-09-08T00:04:55;23.70;99.90
48988;DHT22;34799;51.440;-2.534;2023-09-08T00:07:22;23.60;99.90
48988;DHT22;34799;51.440;-2.534;2023-09-08T00:09:49;23.60;99.90
48988;DHT22;34799;51.440;-2.534;2023-09-08T00:12:16;23.60;99.90
48988;DHT22;34799;51.440;-2.534;2023-09-08T00:14:44;23.50;99.90
48988;DHT22;34799;51.440;-2.534;2023-09-08T00:17:11;23.50;99.90
48988;DHT22;34799;51.440;-2.534;2023-09-08T00:19:38;23.50;99.90
48988;DHT22;34799;51.440;-2.534;2023-09-08T00:22:06;23.40;99.90
48988;DHT22;34799;51.440;-2.534;2023-09-08T00:24:34;23.30;99.90
48988;DHT22;34799;51.440;-2.534;2023-09-08T00:27:02;23.30;99.90
48988;DHT22;34799;51.440;-2.534;2023-09-08T00:29:29;23.20;99.90
48988;DHT22;34799;51.440;-2.534;2023-09-08T00:31:57;23.20;99.90
48988;DHT22;34799;51.440;-2.534;2023-09-08T00:34:25;23.10;99.90
48988;DHT22;34799;51.440;-2.534;2023-09-08T00:36:53;23.10;99.90
48988;DHT22;34799;51.440;-2.534;2023-09-08T00:39:21;23.00;99.90
48988;DHT22;34799;51.440;-2.534;2023-09-08T00:41:48;23.00;99.90
48988;DHT22;34799;51.440;-2.534;2023-09-08T00:44:17;23.00;99.90
48988;DHT22;34799;51.440;-2.534;2023-09-08T00:46:46;23.00;99.90
48988;DHT22;34799;51.440;-2.534;2023-09-08T00:49:13;23.00;99.90
48988;DHT22;34799;51.440;-2.534;2023-09-08T00:51:41;22.90;99.90
48988;DHT22;34799;51.440;-2.534;2023-09-08T00:54:08;22.90;99.90
48988;DHT22;34799;51.440;-2.534;2023-09-08T00:56:37;22.90;99.90
48988;DHT22;34799;51.440;-2.534;2023-09-08T00:59:05;22.90;99.90
48988;DHT22;34799;51.440;-2.534;2023-09-08T01:01:34;22.90;99.90
48988;DHT22;34799;51.440;-2.534;2023-09-08T01:04:01;22.90;99.90
48988;DHT22;34799;51.440;-2.534;2023-09-08T01:06:30;22.90;99.90
48988;DHT22;34799;51.440;-2.534;2023-09-08T01:08:59;22.90;99.90
48988;DHT22;34799;51.440;-2.534;2023-09-08T01:11:27;22.80;99.90
48988;DHT22;34799;51.440;-2.534;2023-09-08T01:13:54;22.90;99.90
48988;DHT22;34799;51.440;-2.534;2023-09-08T01:16:22;22.80;99.90
48988;DHT22;34799;51.440;-2.534;2023-09-08T01:18:49;22.80;99.90
48988;DHT22;34799;51.440;-2.534;2023-09-08T01:24:32;22.70;99.90
48988;DHT22;34799;51.440;-2.534;2023-09-08T01:27:03;22.70;99.90
48988;DHT22;34799;51.440;-2.534;2023-09-08T01:29:31;22.70;99.90
48988;DHT22;34799;51.440;-2.534;2023-09-08T01:32:00;22.60;99.90
48988;DHT22;34799;51.440;-2.534;2023-09-08T01:34:28;22.60;99.90
48988;DHT22;34799;51.440;-2.534;2023-09-08T01:36:56;22.50;99.90
48988;DHT22;34799;51.440;-2.534;2023-09-08T01:39:24;22.50;99.90
48988;DHT22;34799;51.440;-2.534;2023-09-08T01:41:52;22.40;99.90
48988;DHT22;34799;51.440;-2.534;2023-09-08T01:44:20;22.40;99.90
48988;DHT22;34799;51.440;-2.534;2023-09-08T01:46:47;22.60;99.90
48988;DHT22;34799;51.440;-2.534;2023-09-08T01:49:15;22.40;99.90
48988;DHT22;34799;51.440;-2.534;2023-09-08T01:51:43;22.30;99.90
48988;DHT22;34799;51.440;-2.534;2023-09-08T01:54:11;22.30;99.90
48988;DHT22;34799;51.440;-2.534;2023-09-08T01:56:38;22.30;99.90
48988;DHT22;34799;51.440;-2.534;2023-09-08T01:59:06;22.30;99.90
48988;DHT22;34799;51.440;-2.534;2023-09-08T02:01:34;22.20;99.90
48988;DHT22;34799;51.440;-2.534;2023-09-08T02:04:02;22.20;99.90
48988;DHT22;34799;51.440;-2.534;2023-09-08T02:06:30;22.20;99.90
48988;DHT22;34799;51.440;-2.534;2023-09-08T02:08:57;22.10;99.90
48988;DHT22;34799;51.440;-2.534;2023-09-08T02:11:25;22.20;99.90
48988;DHT22;34799;51.440;-2.534;2023-09-08T02:13:53;22.20;99.90
48988;DHT22;34799;51.440;-2.534;2023-09-08T02:16:21;22.20;99.90
48988;DHT22;34799;51.440;-2.534;2023-09-08T02:18:50;22.10;99.90
48988;DHT22;34799;51.440;-2.534;2023-09-08T02:21:17;22.10;99.90
48988;DHT22;34799;51.440;-2.534;2023-09-08T02:23:45;22.10;99.90
48988;DHT22;34799;51.440;-2.534;2023-09-08T02:26:12;22.10;99.90
48988;DHT22;34799;51.440;-2.534;2023-09-08T02:28:40;22.00;99.90
48988;DHT22;34799;51.440;-2.534;2023-09-08T02:31:07;22.00;99.90
48988;DHT22;34799;51.440;-2.534;2023-09-08T02:33:36;22.00;99.90
48988;DHT22;34799;51.440;-2.534;2023-09-08T02:36:05;21.90;99.90
48988;DHT22;34799;51.440;-2.534;2023-09-08T02:38:37;21.90;99.90
48988;DHT22;34799;51.440;-2.534;2023-09-08T02:41:05;21.90;99.90
48988;DHT22;34799;51.440;-2.534;2023-09-08T02:43:32;21.90;99.90
48988;DHT22;34799;51.440;-2.534;2023-09-08T02:45:59;21.80;99.90
48988;DHT22;34799;51.440;-2.534;2023-09-08T02:48:26;21.80;99.90
48988;DHT22;34799;51.440;-2.534;2023-09-08T02:50:53;21.80;99.90
48988;DHT22;34799;51.440;-2.534;2023-09-08T02:53:22;21.80;99.90
48988;DHT22;34799;51.440;-2.534;2023-09-08T02:55:49;21.70;99.90
48988;DHT22;34799;51.440;-2.534;2023-09-08T02:58:16;21.70;99.90
48988;DHT22;34799;51.440;-2.534;2023-09-08T03:00:43;21.70;99.90
48988;DHT22;34799;51.440;-2.534;2023-09-08T03:03:12;21.70;99.90
48988;DHT22;34799;51.440;-2.534;2023-09-08T03:05:40;21.70;99.90
48988;DHT22;34799;51.440;-2.534;2023-09-08T03:08:07;21.70;99.90
48988;DHT22;34799;51.440;-2.534;2023-09-08T03:10:34;21.60;99.90
48988;DHT22;34799;51.440;-2.534;2023-09-08T03:13:04;21.60;99.90
48988;DHT22;34799;51.440;-2.534;2023-09-08T03:15:31;21.60;99.90
48988;DHT22;34799;51.440;-2.534;2023-09-08T03:17:59;21.60;99.90
48988;DHT22;34799;51.440;-2.534;2023-09-08T03:20:27;21.60;99.90
48988;DHT22;34799;51.440;-2.534;2023-09-08T03:22:55;21.60;99.90
48988;DHT22;34799;51.440;-2.534;2023-09-08T03:25:22;21.60;99.90
48988;DHT22;34799;51.440;-2.534;2023-09-08T03:27:49;21.60;99.90
48988;DHT22;34799;51.440;-2.534;2023-09-08T03:30:17;21.60;99.90
48988;DHT22;34799;51.440;-2.534;2023-09-08T03:32:45;21.40;99.90
48988;DHT22;34799;51.440;-2.534;2023-09-08T03:35:13;21.30;99.90
48988;DHT22;34799;51.440;-2.534;2023-09-08T03:37:42;21.20;99.90
48988;DHT22;34799;51.440;-2.534;2023-09-08T03:40:10;21.10;99.90
48988;DHT22;34799;51.440;-2.534;2023-09-08T03:42:37;21.10;99.90
48988;DHT22;34799;51.440;-2.534;2023-09-08T03:45:05;21.10;99.90
48988;DHT22;34799;51.440;-2.534;2023-09-08T03:47:33;21.10;99.90
48988;DHT22;34799;51.440;-2.534;2023-09-08T03:50:01;21.10;99.90
48988;DHT22;34799;51.440;-2.534;2023-09-08T03:52:28;21.10;99.90
48988;DHT22;34799;51.440;-2.534;2023-09-08T03:54:56;21.10;99.90
48988;DHT22;34799;51.440;-2.534;2023-09-08T03:57:24;21.10;99.90
48988;DHT22;34799;51.440;-2.534;2023-09-08T03:59:51;21.10;99.90
48988;DHT22;34799;51.440;-2.534;2023-09-08T04:02:19;21.10;99.90
48988;DHT22;34799;51.440;-2.534;2023-09-08T04:04:48;21.10;99.90
48988;DHT22;34799;51.440;-2.534;2023-09-08T04:07:16;21.20;99.90
48988;DHT22;34799;51.440;-2.534;2023-09-08T04:09:44;21.10;99.90
48988;DHT22;34799;51.440;-2.534;2023-09-08T04:12:12;21.10;99.90
48988;DHT22;34799;51.440;-2.534;2023-09-08T04:14:39;21.10;99.90
48988;DHT22;34799;51.440;-2.534;2023-09-08T04:17:07;21.10;99.90
48988;DHT22;34799;51.440;-2.534;2023-09-08T04:19:35;21.10;99.90
48988;DHT22;34799;51.440;-2.534;2023-09-08T04:22:03;21.10;99.90
48988;DHT22;34799;51.440;-2.534;2023-09-08T04:24:35;21.00;99.90
48988;DHT22;34799;51.440;-2.534;2023-09-08T04:27:03;21.00;99.90
48988;DHT22;34799;51.440;-2.534;2023-09-08T04:29:30;21.00;99.90
48988;DHT22;34799;51.440;-2.534;2023-09-08T04:31:57;21.00;99.90
48988;DHT22;34799;51.440;-2.534;2023-09-08T04:34:24;21.00;99.90
48988;DHT22;34799;51.440;-2.534;2023-09-08T04:36:51;21.00;99.90
48988;DHT22;34799;51.440;-2.534;2023-09-08T04:39:18;21.00;99.90
48988;DHT22;34799;51.440;-2.534;2023-09-08T04:41:45;21.00;99.90
48988;DHT22;34799;51.440;-2.534;2023-09-08T04:44:13;21.00;99.90
48988;DHT22;34799;51.440;-2.534;2023-09-08T04:46:42;21.00;99.90
48988;DHT22;34799;51.440;-2.534;2023-09-08T04:49:09;21.00;99.90
48988;DHT22;34799;51.440;-2.534;2023-09-08T04:51:37;21.00;99.90
48988;DHT22;34799;51.440;-2.534;2023-09-08T04:54:05;21.00;99.90
48988;DHT22;34799;51.440;-2.534;2023-09-08T04:56:33;21.00;99.90
48988;DHT22;34799;51.440;-2.534;2023-09-08T04:59:01;20.90;99.90
48988;DHT22;34799;51.440;-2.534;2023-09-08T05:01:28;20.90;99.90
48988;DHT22;34799;51.440;-2.534;2023-09-08T05:04:00;20.90;99.90
48988;DHT22;34799;51.440;-2.534;2023-09-08T05:06:27;20.80;99.90
48988;DHT22;34799;51.440;-2.534;2023-09-08T05:08:54;20.80;99.90
48988;DHT22;34799;51.440;-2.534;2023-09-08T05:11:23;20.80;99.90
48988;DHT22;34799;51.440;-2.534;2023-09-08T05:13:51;20.80;99.90
48988;DHT22;34799;51.440;-2.534;2023-09-08T05:16:18;20.80;99.90
48988;DHT22;34799;51.440;-2.534;2023-09-08T05:18:53;20.80;99.90
48988;DHT22;34799;51.440;-2.534;2023-09-08T05:21:21;20.80;99.90
48988;DHT22;34799;51.440;-2.534;2023-09-08T05:23:49;20.80;99.90
48988;DHT22;34799;51.440;-2.534;2023-09-08T05:26:17;20.80;99.90
48988;DHT22;34799;51.440;-2.534;2023-09-08T05:28:44;20.70;99.90
48988;DHT22;34799;51.440;-2.534;2023-09-08T05:31:13;19.00;99.90
48988;DHT22;34799;51.440;-2.534;2023-09-08T05:33:41;20.40;99.90
48988;DHT22;34799;51.440;-2.534;2023-09-08T05:36:09;20.40;99.90
48988;DHT22;34799;51.440;-2.534;2023-09-08T05:38:37;20.40;99.90
48988;DHT22;34799;51.440;-2.534;2023-09-08T05:41:04;20.40;99.90
48988;DHT22;34799;51.440;-2.534;2023-09-08T05:43:32;20.40;99.90
48988;DHT22;34799;51.440;-2.534;2023-09-08T05:46:00;20.40;99.90
48988;DHT22;34799;51.440;-2.534;2023-09-08T05:48:28;20.40;99.90
48988;DHT22;34799;51.440;-2.534;2023-09-08T05:50:56;20.50;99.90
48988;DHT22;34799;51.440;-2.534;2023-09-08T05:53:23;20.50;99.90
48988;DHT22;34799;51.440;-2.534;2023-09-08T05:55:51;20.50;99.90
48988;DHT22;34799;51.440;-2.534;2023-09-08T05:58:20;20.50;99.90
48988;DHT22;34799;51.440;-2.534;2023-09-08T06:00:47;20.40;99.90
48988;DHT22;34799;51.440;-2.534;2023-09-08T06:03:14;20.50;99.90
48988;DHT22;34799;51.440;-2.534;2023-09-08T06:05:42;20.50;99.90
48988;DHT22;34799;51.440;-2.534;2023-09-08T06:08:10;20.50;99.90
48988;DHT22;34799;51.440;-2.534;2023-09-08T06:10:41;20.60;99.90
48988;DHT22;34799;51.440;-2.534;2023-09-08T06:13:08;20.60;99.90
48988;DHT22;34799;51.440;-2.534;2023-09-08T06:15:36;20.60;99.90
48988;DHT22;34799;51.440;-2.534;2023-09-08T06:18:04;20.70;99.90
48988;DHT22;34799;51.440;-2.534;2023-09-08T06:20:31;20.70;99.90
48988;DHT22;34799;51.440;-2.534;2023-09-08T06:22:58;20.70;99.90
48988;DHT22;34799;51.440;-2.534;2023-09-08T06:25:26;20.70;99.90
48988;DHT22;34799;51.440;-2.534;2023-09-08T06:27:55;20.80;99.90
48988;DHT22;34799;51.440;-2.534;2023-09-08T06:30:22;20.80;99.90
48988;DHT22;34799;51.440;-2.534;2023-09-08T06:32:49;20.80;99.90
48988;DHT22;34799;51.440;-2.534;2023-09-08T06:35:18;20.90;99.90
48988;DHT22;34799;51.440;-2.534;2023-09-08T06:37:46;20.90;99.90
48988;DHT22;34799;51.440;-2.534;2023-09-08T06:40:13;21.00;99.90
48988;DHT22;34799;51.440;-2.534;2023-09-08T06:42:41;21.00;99.90
48988;DHT22;34799;51.440;-2.534;2023-09-08T06:45:25;21.00;99.90
48988;DHT22;34799;51.440;-2.534;2023-09-08T06:47:53;21.10;99.90
48988;DHT22;34799;51.440;-2.534;2023-09-08T06:50:23;21.00;99.90
48988;DHT22;34799;51.440;-2.534;2023-09-08T06:52:51;21.10;99.90
48988;DHT22;34799;51.440;-2.534;2023-09-08T06:55:19;21.10;99.90
48988;DHT22;34799;51.440;-2.534;2023-09-08T06:57:47;21.10;99.90
48988;DHT22;34799;51.440;-2.534;2023-09-08T07:00:15;21.10;99.90
48988;DHT22;34799;51.440;-2.534;2023-09-08T07:02:44;21.00;99.90
48988;DHT22;34799;51.440;-2.534;2023-09-08T07:05:11;21.00;99.90
48988;DHT22;34799;51.440;-2.534;2023-09-08T07:07:39;21.00;99.90
48988;DHT22;34799;51.440;-2.534;2023-09-08T07:10:07;21.10;99.90
48988;DHT22;34799;51.440;-2.534;2023-09-08T07:12:35;21.10;99.90
48988;DHT22;34799;51.440;-2.534;2023-09-08T07:15:03;21.10;99.90
48988;DHT22;34799;51.440;-2.534;2023-09-08T07:17:30;21.20;99.90
48988;DHT22;34799;51.440;-2.534;2023-09-08T07:19:57;21.20;99.90
48988;DHT22;34799;51.440;-2.534;2023-09-08T07:22:25;21.30;99.90
48988;DHT22;34799;51.440;-2.534;2023-09-08T07:24:53;21.40;99.90
48988;DHT22;34799;51.440;-2.534;2023-09-08T07:27:21;21.50;99.90
48988;DHT22;34799;51.440;-2.534;2023-09-08T07:29:49;21.50;99.90
48988;DHT22;34799;51.440;-2.534;2023-09-08T07:32:17;21.60;99.90
48988;DHT22;34799;51.440;-2.534;2023-09-08T07:34:45;21.50;99.90
48988;DHT22;34799;51.440;-2.534;2023-09-08T07:37:13;21.60;99.90
48988;DHT22;34799;51.440;-2.534;2023-09-08T07:39:40;21.50;99.90
48988;DHT22;34799;51.440;-2.534;2023-09-08T07:42:08;21.50;99.90
48988;DHT22;34799;51.440;-2.534;2023-09-08T07:44:35;21.50;99.90
48988;DHT22;34799;51.440;-2.534;2023-09-08T07:47:04;21.50;99.90
48988;DHT22;34799;51.440;-2.534;2023-09-08T07:49:33;21.60;99.90
48988;DHT22;34799;51.440;-2.534;2023-09-08T07:52:00;21.70;99.90
48988;DHT22;34799;51.440;-2.534;2023-09-08T07:54:28;21.80;99.90
48988;DHT22;34799;51.440;-2.534;2023-09-08T07:56:55;21.90;99.90
48988;DHT22;34799;51.440;-2.534;2023-09-08T07:59:22;22.00;99.90
48988;DHT22;34799;51.440;-2.534;2023-09-08T08:01:50;22.10;99.90
48988;DHT22;34799;51.440;-2.534;2023-09-08T08:04:18;22.20;99.90
48988;DHT22;34799;51.440;-2.534;2023-09-08T08:06:45;22.20;99.90
48988;DHT22;34799;51.440;-2.534;2023-09-08T08:09:14;22.30;99.90
48988;DHT22;34799;51.440;-2.534;2023-09-08T08:11:41;22.40;99.90
48988;DHT22;34799;51.440;-2.534;2023-09-08T08:14:09;22.50;99.90
48988;DHT22;34799;51.440;-2.534;2023-09-08T08:16:37;22.60;99.90
48988;DHT22;34799;51.440;-2.534;2023-09-08T08:19:04;22.60;99.90
48988;DHT22;34799;51.440;-2.534;2023-09-08T08:21:32;22.70;99.90
48988;DHT22;34799;51.440;-2.534;2023-09-08T08:23:59;22.80;99.90
48988;DHT22;34799;51.440;-2.534;2023-09-08T08:26:28;22.80;99.90
48988;DHT22;34799;51.440;-2.534;2023-09-08T08:28:59;22.90;99.90
48988;DHT22;34799;51.440;-2.534;2023-09-08T08:31:26;22.80;99.90
48988;DHT22;34799;51.440;-2.534;2023-09-08T08:33:53;22.90;99.90
48988;DHT22;34799;51.440;-2.534;2023-09-08T08:36:20;22.80;99.90
48988;DHT22;34799;51.440;-2.534;2023-09-08T08:38:48;22.90;99.90
48988;DHT22;34799;51.440;-2.534;2023-09-08T08:41:16;22.90;99.90
48988;DHT22;34799;51.440;-2.534;2023-09-08T08:43:43;22.90;99.90
48988;DHT22;34799;51.440;-2.534;2023-09-08T08:46:13;22.90;99.90
48988;DHT22;34799;51.440;-2.534;2023-09-08T08:48:41;23.00;99.90
48988;DHT22;34799;51.440;-2.534;2023-09-08T08:51:11;23.10;99.90
48988;DHT22;34799;51.440;-2.534;2023-09-08T08:53:39;23.00;99.90
48988;DHT22;34799;51.440;-2.534;2023-09-08T08:56:07;23.10;99.90
48988;DHT22;34799;51.440;-2.534;2023-09-08T08:58:37;23.20;99.90
48988;DHT22;34799;51.440;-2.534;2023-09-08T09:01:09;23.20;99.90
48988;DHT22;34799;51.440;-2.534;2023-09-08T09:03:38;23.30;99.90
48988;DHT22;34799;51.440;-2.534;2023-09-08T09:06:06;23.30;99.90
48988;DHT22;34799;51.440;-2.534;2023-09-08T09:08:33;23.50;99.90
48988;DHT22;34799;51.440;-2.534;2023-09-08T09:11:01;23.60;99.90
48988;DHT22;34799;51.440;-2.534;2023-09-08T09:13:28;23.60;99.90
48988;DHT22;34799;51.440;-2.534;2023-09-08T09:15:59;23.80;99.90
48988;DHT22;34799;51.440;-2.534;2023-09-08T09:18:27;23.80;99.90
48988;DHT22;34799;51.440;-2.534;2023-09-08T09:21:00;23.90;99.90
48988;DHT22;34799;51.440;-2.534;2023-09-08T09:23:29;23.90;99.90
48988;DHT22;34799;51.440;-2.534;2023-09-08T09:25:58;24.00;99.90
48988;DHT22;34799;51.440;-2.534;2023-09-08T09:28:27;24.10;99.90
48988;DHT22;34799;51.440;-2.534;2023-09-08T09:30:55;24.10;99.90
48988;DHT22;34799;51.440;-2.534;2023-09-08T09:33:22;24.10;99.90
48988;DHT22;34799;51.440;-2.534;2023-09-08T09:35:51;24.10;99.90
48988;DHT22;34799;51.440;-2.534;2023-09-08T09:38:19;24.30;99.90
48988;DHT22;34799;51.440;-2.534;2023-09-08T09:40:48;24.40;99.90
48988;DHT22;34799;51.440;-2.534;2023-09-08T09:43:16;24.50;99.90
48988;DHT22;34799;51.440;-2.534;2023-09-08T09:45:44;24.70;99.90
48988;DHT22;34799;51.440;-2.534;2023-09-08T09:48:11;24.80;99.90
48988;DHT22;34799;51.440;-2.534;2023-09-08T09:50:40;24.90;99.90
48988;DHT22;34799;51.440;-2.534;2023-09-08T09:53:14;25.10;99.90
48988;DHT22;34799;51.440;-2.534;2023-09-08T09:55:43;25.10;99.90
48988;DHT22;34799;51.440;-2.534;2023-09-08T09:58:11;25.20;99.90
48988;DHT22;34799;51.440;-2.534;2023-09-08T10:00:38;25.30;99.90
48988;DHT22;34799;51.440;-2.534;2023-09-08T10:03:07;25.40;99.90
48988;DHT22;34799;51.440;-2.534;2023-09-08T10:05:37;25.40;99.90
48988;DHT22;34799;51.440;-2.534;2023-09-08T10:08:04;25.50;99.90
48988;DHT22;34799;51.440;-2.534;2023-09-08T10:10:32;25.60;99.90
48988;DHT22;34799;51.440;-2.534;2023-09-08T10:13:06;25.70;99.90
48988;DHT22;34799;51.440;-2.534;2023-09-08T10:15:34;25.70;99.90
48988;DHT22;34799;51.440;-2.534;2023-09-08T10:18:04;25.70;99.90
48988;DHT22;34799;51.440;-2.534;2023-09-08T10:20:33;25.80;99.90
48988;DHT22;34799;51.440;-2.534;2023-09-08T10:23:16;25.90;99.90
48988;DHT22;34799;51.440;-2.534;2023-09-08T10:25:47;25.90;99.90
48988;DHT22;34799;51.440;-2.534;2023-09-08T10:28:23;25.90;99.90
48988;DHT22;34799;51.440;-2.534;2023-09-08T10:30:52;26.00;99.90
48988;DHT22;34799;51.440;-2.534;2023-09-08T10:33:20;26.00;99.90
48988;DHT22;34799;51.440;-2.534;2023-09-08T10:35:47;26.00;99.90
48988;DHT22;34799;51.440;-2.534;2023-09-08T10:38:25;26.10;99.90
48988;DHT22;34799;51.440;-2.534;2023-09-08T10:40:53;26.10;99.90
48988;DHT22;34799;51.440;-2.534;2023-09-08T10:43:21;26.10;99.90
48988;DHT22;34799;51.440;-2.534;2023-09-08T10:45:48;26.20;99.90
48988;DHT22;34799;51.440;-2.534;2023-09-08T10:48:15;26.20;99.90
48988;DHT22;34799;51.440;-2.534;2023-09-08T10:50:43;26.20;99.90
48988;DHT22;34799;51.440;-2.534;2023-09-08T10:53:16;26.20;99.90
48988;DHT22;34799;51.440;-2.534;2023-09-08T10:55:49;26.30;99.90
48988;DHT22;34799;51.440;-2.534;2023-09-08T10:58:51;26.40;99.90
48988;DHT22;34799;51.440;-2.534;2023-09-08T11:01:20;26.40;99.90
48988;DHT22;34799;51.440;-2.534;2023-09-08T11:03:55;26.50;99.90
48988;DHT22;34799;51.440;-2.534;2023-09-08T11:06:23;26.60;99.90
48988;DHT22;34799;51.440;-2.534;2023-09-08T11:08:51;26.70;99.90
48988;DHT22;34799;51.440;-2.534;2023-09-08T11:11:20;26.80;99.90
48988;DHT22;34799;51.440;-2.534;2023-09-08T11:13:47;26.80;99.90
48988;DHT22;34799;51.440;-2.534;2023-09-08T11:16:15;26.90;99.90
48988;DHT22;34799;51.440;-2.534;2023-09-08T11:18:42;27.10;99.90
48988;DHT22;34799;51.440;-2.534;2023-09-08T11:21:11;27.10;99.90
48988;DHT22;34799;51.440;-2.534;2023-09-08T11:23:39;27.20;99.90
48988;DHT22;34799;51.440;-2.534;2023-09-08T11:26:06;27.30;99.90
48988;DHT22;34799;51.440;-2.534;2023-09-08T11:28:36;27.40;99.90
48988;DHT22;34799;51.440;-2.534;2023-09-08T11:31:04;27.40;99.90
48988;DHT22;34799;51.440;-2.534;2023-09-08T11:33:34;27.40;99.90
48988;DHT22;34799;51.440;-2.534;2023-09-08T11:36:01;27.40;99.90
48988;DHT22;34799;51.440;-2.534;2023-09-08T11:38:29;27.50;99.90
48988;DHT22;34799;51.440;-2.534;2023-09-08T11:40:57;27.50;99.90
48988;DHT22;34799;51.440;-2.534;2023-09-08T11:43:26;27.60;99.90
48988;DHT22;34799;51.440;-2.534;2023-09-08T11:45:55;27.70;99.90
48988;DHT22;34799;51.440;-2.534;2023-09-08T11:48:24;27.80;99.90
48988;DHT22;34799;51.440;-2.534;2023-09-08T11:50:53;27.90;99.90
48988;DHT22;34799;51.440;-2.534;2023-09-08T11:53:22;28.00;99.90
48988;DHT22;34799;51.440;-2.534;2023-09-08T11:55:50;28.00;99.90
48988;DHT22;34799;51.440;-2.534;2023-09-08T11:58:18;28.00;99.90
48988;DHT22;34799;51.440;-2.534;2023-09-08T12:00:46;28.10;99.90
48988;DHT22;34799;51.440;-2.534;2023-09-08T12:03:16;28.10;99.90
48988;DHT22;34799;51.440;-2.534;2023-09-08T12:05:44;28.10;99.90
48988;DHT22;34799;51.440;-2.534;2023-09-08T12:08:18;28.20;99.90
48988;DHT22;34799;51.440;-2.534;2023-09-08T12:10:46;28.30;99.90
48988;DHT22;34799;51.440;-2.534;2023-09-08T12:13:20;28.40;99.90
48988;DHT22;34799;51.440;-2.534;2023-09-08T12:15:49;28.40;99.90
48988;DHT22;34799;51.440;-2.534;2023-09-08T12:18:16;28.40;99.90
48988;DHT22;34799;51.440;-2.534;2023-09-08T12:20:44;28.40;99.90
48988;DHT22;34799;51.440;-2.534;2023-09-08T12:25:51;28.70;99.90
48988;DHT22;34799;51.440;-2.534;2023-09-08T12:28:20;28.80;99.90
48988;DHT22;34799;51.440;-2.534;2023-09-08T12:30:51;28.80;99.90
48988;DHT22;34799;51.440;-2.534;2023-09-08T12:33:20;28.90;99.90
48988;DHT22;34799;51.440;-2.534;2023-09-08T12:35:48;28.90;99.90
48988;DHT22;34799;51.440;-2.534;2023-09-08T12:38:15;28.90;99.90
48988;DHT22;34799;51.440;-2.534;2023-09-08T12:40:42;28.90;99.90
48988;DHT22;34799;51.440;-2.534;2023-09-08T12:43:09;28.90;99.90
48988;DHT22;34799;51.440;-2.534;2023-09-08T12:45:36;29.00;99.90
48988;DHT22;34799;51.440;-2.534;2023-09-08T12:48:03;29.10;99.90
48988;DHT22;34799;51.440;-2.534;2023-09-08T12:50:31;29.10;99.90
48988;DHT22;34799;51.440;-2.534;2023-09-08T12:52:59;29.20;99.90
48988;DHT22;34799;51.440;-2.534;2023-09-08T12:55:27;29.20;99.90
48988;DHT22;34799;51.440;-2.534;2023-09-08T12:57:54;29.40;99.90
48988;DHT22;34799;51.440;-2.534;2023-09-08T13:00:22;29.60;99.90
48988;DHT22;34799;51.440;-2.534;2023-09-08T13:02:50;29.80;99.90
48988;DHT22;34799;51.440;-2.534;2023-09-08T13:05:18;29.90;99.90
48988;DHT22;34799;51.440;-2.534;2023-09-08T13:07:46;30.00;99.90
48988;DHT22;34799;51.440;-2.534;2023-09-08T13:10:16;30.00;99.90
48988;DHT22;34799;51.440;-2.534;2023-09-08T13:12:44;30.20;99.90
48988;DHT22;34799;51.440;-2.534;2023-09-08T13:15:11;30.40;99.90
48988;DHT22;34799;51.440;-2.534;2023-09-08T13:17:38;30.40;99.90
48988;DHT22;34799;51.440;-2.534;2023-09-08T13:20:06;30.50;99.90
48988;DHT22;34799;51.440;-2.534;2023-09-08T13:22:34;30.50;99.90
48988;DHT22;34799;51.440;-2.534;2023-09-08T13:25:02;30.50;99.90
48988;DHT22;34799;51.440;-2.534;2023-09-08T13:27:29;30.40;99.90
48988;DHT22;34799;51.440;-2.534;2023-09-08T13:30:11;30.50;99.90
48988;DHT22;34799;51.440;-2.534;2023-09-08T13:32:38;30.50;99.90
48988;DHT22;34799;51.440;-2.534;2023-09-08T13:35:06;30.50;99.90
48988;DHT22;34799;51.440;-2.534;2023-09-08T13:37:33;30.40;99.90
48988;DHT22;34799;51.440;-2.534;2023-09-08T13:40:07;30.40;99.90
48988;DHT22;34799;51.440;-2.534;2023-09-08T13:42:35;30.40;99.90
48988;DHT22;34799;51.440;-2.534;2023-09-08T13:45:04;30.50;99.90
48988;DHT22;34799;51.440;-2.534;2023-09-08T13:47:31;30.70;99.90
48988;DHT22;34799;51.440;-2.534;2023-09-08T13:49:59;30.70;99.90
48988;DHT22;34799;51.440;-2.534;2023-09-08T13:52:28;30.80;99.90
48988;DHT22;34799;51.440;-2.534;2023-09-08T13:54:57;30.80;99.90
48988;DHT22;34799;51.440;-2.534;2023-09-08T13:57:27;30.80;99.90
48988;DHT22;34799;51.440;-2.534;2023-09-08T13:59:54;30.80;99.90
48988;DHT22;34799;51.440;-2.534;2023-09-08T14:02:23;30.90;99.90
48988;DHT22;34799;51.440;-2.534;2023-09-08T14:04:53;31.00;99.90
48988;DHT22;34799;51.440;-2.534;2023-09-08T14:07:22;31.00;99.90
48988;DHT22;34799;51.440;-2.534;2023-09-08T14:09:53;31.10;99.90
48988;DHT22;34799;51.440;-2.534;2023-09-08T14:12:21;31.20;99.90
48988;DHT22;34799;51.440;-2.534;2023-09-08T14:14:49;31.10;99.90
48988;DHT22;34799;51.440;-2.534;2023-09-08T14:17:16;31.00;99.90
48988;DHT22;34799;51.440;-2.534;2023-09-08T14:19:43;31.00;99.90
48988;DHT22;34799;51.440;-2.534;2023-09-08T14:22:11;31.00;99.90
48988;DHT22;34799;51.440;-2.534;2023-09-08T14:24:39;31.00;99.90
48988;DHT22;34799;51.440;-2.534;2023-09-08T14:27:07;31.10;99.90
48988;DHT22;34799;51.440;-2.534;2023-09-08T14:29:34;31.10;99.90
48988;DHT22;34799;51.440;-2.534;2023-09-08T14:32:02;31.10;99.90
48988;DHT22;34799;51.440;-2.534;2023-09-08T14:34:30;31.10;99.90
48988;DHT22;34799;51.440;-2.534;2023-09-08T14:36:58;31.10;99.90
48988;DHT22;34799;51.440;-2.534;2023-09-08T14:39:25;31.10;99.90
48988;DHT22;34799;51.440;-2.534;2023-09-08T14:41:53;31.20;99.90
48988;DHT22;34799;51.440;-2.534;2023-09-08T14:44:21;31.50;99.90
48988;DHT22;34799;51.440;-2.534;2023-09-08T14:46:50;31.30;99.90
48988;DHT22;34799;51.440;-2.534;2023-09-08T14:49:18;31.20;99.90
48988;DHT22;34799;51.440;-2.534;2023-09-08T14:51:45;31.10;99.90
48988;DHT22;34799;51.440;-2.534;2023-09-08T14:54:12;31.00;99.90
48988;DHT22;34799;51.440;-2.534;2023-09-08T14:56:40;30.90;99.90
48988;DHT22;34799;51.440;-2.534;2023-09-08T14:59:08;30.70;99.90
48988;DHT22;34799;51.440;-2.534;2023-09-08T15:01:36;30.50;99.90
48988;DHT22;34799;51.440;-2.534;2023-09-08T15:04:05;30.30;99.90
48988;DHT22;34799;51.440;-2.534;2023-09-08T15:06:32;30.20;99.90
48988;DHT22;34799;51.440;-2.534;2023-09-08T15:09:00;30.00;99.90
48988;DHT22;34799;51.440;-2.534;2023-09-08T15:11:28;30.20;99.90
48988;DHT22;34799;51.440;-2.534;2023-09-08T15:13:55;30.50;99.90
48988;DHT22;34799;51.440;-2.534;2023-09-08T15:16:23;30.80;99.90
48988;DHT22;34799;51.440;-2.534;2023-09-08T15:18:51;30.90;99.90
48988;DHT22;34799;51.440;-2.534;2023-09-08T15:21:19;30.90;99.90
48988;DHT22;34799;51.440;-2.534;2023-09-08T15:23:53;30.90;99.90
48988;DHT22;34799;51.440;-2.534;2023-09-08T15:26:20;30.80;99.90
48988;DHT22;34799;51.440;-2.534;2023-09-08T15:28:47;30.70;99.90